Time;durP1;ratioP1;P1;durP2;ratioP2;P2;SDS_P1;SDS_P2;PMS_P1;PMS_P2;Temp;Humidity;BMP_temperature;BMP_pressure;BME280_temperature;BME280_humidity;BME280_pressure;Samples;Min_cycle;Max_cycle;Signal;HPM_P1;HPM_P2
2022/10/19 00:01:40;;;;;;;;;;;;;;;8.75;57.32;100415.63;4959993;28;19928;-83
2022/10/19 00:04:05;;;;;;;;;;;;;;;8.70;57.08;100410.34;4964437;28;19919;-83
2022/10/19 00:06:32;;;;;;;;;;;;;;;8.42;57.87;100419.84;4972438;28;19984;-83
2022/10/19 00:08:59;;;;;;;;;;;;;;;8.36;58.28;100420.69;4972765;28;20004;-83
2022/10/19 00:11:24;;;;;;;;;;;;;;;8.11;59.16;100411.78;4972629;28;19914;-83
2022/10/19 00:13:51;;;;;;;;;;;;;;;8.13;59.09;100403.91;4974381;28;20005;-83
2022/10/19 00:16:17;;;;;;;;;;;;;;;7.94;59.17;100406.41;4974962;28;21194;-83
2022/10/19 00:18:43;;;;;;;;;;;;;;;8.01;59.88;100395.03;4992180;28;19914;-84
2022/10/19 00:21:10;;;;;;;;;;;;;;;8.13;59.34;100398.66;4989585;28;20355;-83
2022/10/19 00:23:35;;;;;;;;;;;;;;;8.04;59.12;100394.19;4991941;28;20008;-83
2022/10/19 00:26:01;;;;;;;;;;;;;;;7.99;59.51;100381.03;4991874;28;20451;-83
2022/10/19 00:28:26;;;;;;;;;;;;;;;8.00;59.49;100392.41;4991237;28;20334;-84
2022/10/19 00:30:52;;;;;;;;;;;;;;;7.97;59.63;100388.03;4976266;28;19917;-83
2022/10/19 00:33:20;;;;;;;;;;;;;;;7.87;59.81;100380.94;4981544;28;20013;-82
2022/10/19 00:35:47;;;;;;;;;;;;;;;7.82;60.34;100378.28;4974514;28;19993;-83
2022/10/19 00:38:12;;;;;;;;;;;;;;;7.76;60.37;100374.75;4991964;28;19964;-82
2022/10/19 00:40:38;;;;;;;;;;;;;;;7.61;60.86;100365.88;4991803;28;19921;-82
2022/10/19 00:43:05;;;;;;;;;;;;;;;7.78;60.30;100362.50;4991840;28;19961;-83
2022/10/19 00:45:30;;;;;;;;;;;;;;;7.66;60.11;100361.53;4991597;28;19913;-83
2022/10/19 00:47:55;;;;;;;;;;;;;;;7.64;60.40;100360.63;4972823;28;20029;-83
2022/10/19 00:50:20;;;;;;;;;;;;;;;7.64;60.41;100357.13;4972152;28;19914;-85
2022/10/19 00:52:46;;;;;;;;;;;;;;;7.68;60.58;100353.69;4973663;28;19918;-83
2022/10/19 00:55:12;;;;;;;;;;;;;;;7.78;59.87;100354.63;4974471;28;19914;-82
2022/10/19 00:57:38;;;;;;;;;;;;;;;7.62;60.49;100349.25;4975999;28;19918;-83
2022/10/19 01:00:05;;;;;;;;;;;;;;;7.37;61.26;100342.94;4975920;28;19925;-83
2022/10/19 01:02:30;;;;;;;;;;;;;;;7.29;60.91;100340.25;4981397;28;20446;-83
2022/10/19 01:04:58;;;;;;;;;;;;;;;7.60;60.49;100337.88;4994299;28;19918;-83
2022/10/19 01:07:24;;;;;;;;;;;;;;;7.80;59.50;100332.75;4995322;28;20392;-84
2022/10/19 01:09:49;;;;;;;;;;;;;;;7.76;59.48;100336.22;4995341;28;20007;-81
2022/10/19 01:12:15;;;;;;;;;;;;;;;7.75;60.11;100331.81;4993324;28;19949;-82
2022/10/19 01:14:43;;;;;;;;;;;;;;;7.91;58.74;100329.28;4995074;28;19972;-82
2022/10/19 01:17:43;;;;;;;;;;;;;;;7.93;59.17;100323.19;4995105;28;19918;-83
2022/10/19 01:20:09;;;;;;;;;;;;;;;7.85;58.77;100324.91;4935331;29;19950;-83
2022/10/19 01:22:53;;;;;;;;;;;;;;;7.89;58.83;100327.56;4977722;28;20423;-83
2022/10/19 01:25:18;;;;;;;;;;;;;;;7.85;58.94;100319.66;4974475;28;19922;-84
2022/10/19 01:27:43;;;;;;;;;;;;;;;7.96;58.96;100315.31;4975265;28;20289;-83
2022/10/19 01:30:17;;;;;;;;;;;;;;;7.94;58.77;100313.56;4975280;28;20012;-84
2022/10/19 01:32:48;;;;;;;;;;;;;;;7.91;58.79;100313.53;4977421;28;19918;-84
2022/10/19 01:35:24;;;;;;;;;;;;;;;7.70;59.16;100315.16;4975255;28;20431;-82
2022/10/19 01:38:08;;;;;;;;;;;;;;;7.66;59.05;100308.13;4981316;28;19924;-84
2022/10/19 01:40:50;;;;;;;;;;;;;;;7.69;59.49;100306.41;4990787;28;19925;-84
2022/10/19 01:43:31;;;;;;;;;;;;;;;7.64;59.36;100307.25;4975102;28;19914;-84
2022/10/19 01:46:03;;;;;;;;;;;;;;;7.52;59.99;100298.44;4975144;28;20305;-85
2022/10/19 01:48:31;;;;;;;;;;;;;;;7.50;59.77;100299.28;4975493;28;19914;-84
2022/10/19 01:50:59;;;;;;;;;;;;;;;7.50;59.77;100292.28;4974998;28;19925;-84
2022/10/19 01:53:26;;;;;;;;;;;;;;;7.65;59.70;100294.13;4957641;28;20311;-84
2022/10/19 01:55:51;;;;;;;;;;;;;;;7.59;59.42;100293.22;4975061;28;20004;-84
2022/10/19 01:58:20;;;;;;;;;;;;;;;7.52;59.09;100285.31;4974870;28;20013;-83
2022/10/19 02:00:48;;;;;;;;;;;;;;;7.46;59.35;100289.59;4978870;28;20386;-83
2022/10/19 02:03:14;;;;;;;;;;;;;;;7.47;59.66;100289.63;4994778;28;19918;-83
2022/10/19 02:05:40;;;;;;;;;;;;;;;7.55;59.29;100286.19;4991512;28;19932;-83
2022/10/19 02:08:09;;;;;;;;;;;;;;;7.48;59.92;100286.13;4974708;28;19973;-83
2022/10/19 02:10:36;;;;;;;;;;;;;;;7.35;59.73;100281.66;4974564;28;19918;-83
2022/10/19 02:13:02;;;;;;;;;;;;;;;7.28;59.88;100285.13;4973260;28;19918;-84
2022/10/19 02:15:28;;;;;;;;;;;;;;;7.33;59.82;100281.66;4973403;28;19914;-84
2022/10/19 02:17:56;;;;;;;;;;;;;;;7.41;60.15;100278.22;4974705;28;19914;-83
2022/10/19 02:20:21;;;;;;;;;;;;;;;7.33;60.12;100286.91;4974499;28;19953;-84
2022/10/19 02:22:47;;;;;;;;;;;;;;;7.44;60.32;100271.22;4974661;28;19978;-83
2022/10/19 02:25:13;;;;;;;;;;;;;;;7.37;60.09;100271.16;4974068;28;19917;-83
2022/10/19 02:27:40;;;;;;;;;;;;;;;7.24;60.31;100271.06;4973962;28;20384;-83
2022/10/19 02:30:07;;;;;;;;;;;;;;;7.15;60.16;100268.38;4974063;28;19918;-83
2022/10/19 02:32:32;;;;;;;;;;;;;;;7.01;60.78;100263.03;4980781;28;19972;-83
2022/10/19 02:34:58;;;;;;;;;;;;;;;6.89;61.44;100266.44;4994272;28;19947;-85
2022/10/19 02:37:23;;;;;;;;;;;;;;;6.91;61.59;100271.69;4993689;28;19914;-84
2022/10/19 02:39:49;;;;;;;;;;;;;;;7.02;61.45;100266.53;4992142;28;19914;-85
2022/10/19 02:42:17;;;;;;;;;;;;;;;6.95;61.58;100270.84;4993413;28;20008;-84
2022/10/19 02:44:46;;;;;;;;;;;;;;;7.02;61.96;100263.91;4992993;28;20015;-84
2022/10/19 02:47:12;;;;;;;;;;;;;;;7.09;61.96;100266.59;4993730;28;19914;-84
2022/10/19 02:49:37;;;;;;;;;;;;;;;7.16;61.83;100259.66;4993022;28;19925;-84
2022/10/19 02:52:07;;;;;;;;;;;;;;;7.14;61.46;100261.41;4975917;28;19920;-84
2022/10/19 02:54:32;;;;;;;;;;;;;;;7.07;61.68;100260.44;4992611;28;19957;-84
2022/10/19 02:56:58;;;;;;;;;;;;;;;7.04;61.06;100256.94;4993265;28;19945;-84
2022/10/19 02:59:24;;;;;;;;;;;;;;;7.01;61.09;100254.28;4975245;28;19914;-85
2022/10/19 03:01:49;;;;;;;;;;;;;;;6.96;61.17;100244.63;4973516;28;19918;-84
2022/10/19 03:04:15;;;;;;;;;;;;;;;6.99;60.46;100246.41;4988736;28;19999;-84
2022/10/19 03:06:40;;;;;;;;;;;;;;;6.82;61.44;100244.50;4992898;28;19920;-84
2022/10/19 03:09:05;;;;;;;;;;;;;;;6.68;61.51;100251.38;4992659;28;19920;-85
2022/10/19 03:11:31;;;;;;;;;;;;;;;6.76;61.24;100243.56;4993129;28;19964;-85
2022/10/19 03:13:56;;;;;;;;;;;;;;;6.76;61.53;100249.69;4992599;28;20410;-84
2022/10/19 03:16:21;;;;;;;;;;;;;;;6.68;61.77;100246.13;4991384;28;20375;-85
2022/10/19 03:18:47;;;;;;;;;;;;;;;6.78;61.98;100242.72;4992496;28;19913;-84
2022/10/19 03:21:13;;;;;;;;;;;;;;;6.77;62.10;100240.97;4992877;28;19961;-84
2022/10/19 03:23:38;;;;;;;;;;;;;;;6.87;61.77;100236.66;4979772;28;19925;-83
2022/10/19 03:26:05;;;;;;;;;;;;;;;6.87;61.94;100230.56;4975264;28;20008;-87
2022/10/19 03:28:30;;;;;;;;;;;;;;;6.76;62.60;100228.72;4989750;28;19920;-85
2022/10/19 03:30:55;;;;;;;;;;;;;;;6.74;62.76;100225.19;4985216;28;19918;-87
2022/10/19 03:33:21;;;;;;;;;;;;;;;6.65;62.49;100229.50;4984331;28;20346;-83
2022/10/19 03:35:47;;;;;;;;;;;;;;;6.68;63.06;100229.53;4973532;28;19910;-83
2022/10/19 03:38:12;;;;;;;;;;;;;;;6.68;62.87;100224.28;4972699;28;20367;-85
2022/10/19 03:40:37;;;;;;;;;;;;;;;6.56;63.22;100227.66;4973539;28;19921;-91
2022/10/19 03:43:03;;;;;;;;;;;;;;;6.60;62.34;100224.22;4959822;28;19914;-86
2022/10/19 03:45:28;;;;;;;;;;;;;;;6.55;62.47;100231.13;4999172;28;19909;-91
2022/10/19 03:47:53;;;;;;;;;;;;;;;6.56;62.33;100225.03;4983353;28;19924;-86
2022/10/19 03:50:20;;;;;;;;;;;;;;;6.63;62.54;100217.25;4973427;28;19918;-88
2022/10/19 03:52:45;;;;;;;;;;;;;;;6.60;62.42;100219.84;4972546;28;19914;-87
2022/10/19 03:55:10;;;;;;;;;;;;;;;6.61;62.37;100221.59;4955567;28;20407;-88
2022/10/19 03:57:36;;;;;;;;;;;;;;;6.61;62.22;100218.97;4974390;28;19917;-89
2022/10/19 04:00:03;;;;;;;;;;;;;;;6.64;62.01;100215.47;4991724;28;20373;-88
2022/10/19 04:02:28;;;;;;;;;;;;;;;6.25;62.68;100222.09;4974506;28;20362;-87
2022/10/19 04:04:53;;;;;;;;;;;;;;;6.15;63.24;100221.13;4991857;28;20013;-84
2022/10/19 04:07:18;;;;;;;;;;;;;;;6.34;62.87;100216.06;4992066;28;19965;-89
2022/10/19 04:09:44;;;;;;;;;;;;;;;6.38;62.21;100212.59;4992869;28;19921;-85
2022/10/19 04:12:09;;;;;;;;;;;;;;;6.22;62.55;100209.81;4978818;28;20384;-88
2022/10/19 04:14:35;;;;;;;;;;;;;;;6.36;62.38;100209.09;4972575;28;19925;-88
2022/10/19 04:17:00;;;;;;;;;;;;;;;6.30;62.30;100204.66;4972970;28;20021;-87
2022/10/19 04:19:26;;;;;;;;;;;;;;;6.32;62.29;100202.06;4957157;28;20420;-83
2022/10/19 04:21:51;;;;;;;;;;;;;;;6.29;62.32;100197.69;4974843;28;19949;-87
2022/10/19 04:24:17;;;;;;;;;;;;;;;6.35;62.23;100209.94;4980072;28;20005;-87
2022/10/19 04:26:47;;;;;;;;;;;;;;;6.30;62.20;100203.78;4955230;29;20377;-86
2022/10/19 04:29:13;;;;;;;;;;;;;;;6.36;61.91;100189.00;4965534;28;20400;-86
2022/10/19 04:31:39;;;;;;;;;;;;;;;6.34;62.21;100184.63;4980298;28;19930;-88
2022/10/19 04:34:06;;;;;;;;;;;;;;;6.31;62.02;100181.97;4980109;28;19945;-89
2022/10/19 04:36:32;;;;;;;;;;;;;;;6.25;62.17;100194.13;4965482;28;19922;-89
2022/10/19 04:38:58;;;;;;;;;;;;;;;6.23;62.33;100189.75;4961276;28;20348;-85
2022/10/19 04:41:23;;;;;;;;;;;;;;;6.02;62.68;100188.66;4976686;28;19926;-83
2022/10/19 04:43:54;;;;;;;;;;;;;;;6.02;62.78;100185.16;4976065;28;19965;-86
2022/10/19 04:46:19;;;;;;;;;;;;;;;6.00;62.91;100187.75;4974954;28;19969;-88
2022/10/19 04:48:45;;;;;;;;;;;;;;;6.00;63.12;100184.28;4975876;28;19914;-86
2022/10/19 04:51:11;;;;;;;;;;;;;;;6.00;62.92;100184.28;4975896;28;19992;-85
2022/10/19 04:53:37;;;;;;;;;;;;;;;5.91;63.51;100175.41;4977130;28;20368;-85
2022/10/19 04:56:04;;;;;;;;;;;;;;;6.16;63.30;100180.94;4956930;29;19926;-92
2022/10/19 04:58:29;;;;;;;;;;;;;;;6.23;62.95;100182.78;4962064;28;19913;-85
2022/10/19 05:00:55;;;;;;;;;;;;;;;6.20;63.15;100181.88;4986415;28;19925;-85
2022/10/19 05:03:20;;;;;;;;;;;;;;;6.35;62.74;100183.75;4975652;28;19914;-84
2022/10/19 05:05:45;;;;;;;;;;;;;;;6.32;62.94;100184.63;4975720;28;19918;-84
2022/10/19 05:08:10;;;;;;;;;;;;;;;6.25;62.86;100181.03;4978122;28;19914;-87
2022/10/19 05:10:36;;;;;;;;;;;;;;;6.30;62.97;100177.59;4976933;28;19972;-84
2022/10/19 05:13:02;;;;;;;;;;;;;;;6.42;62.77;100177.72;4983230;28;19914;-86
2022/10/19 05:15:28;;;;;;;;;;;;;;;6.40;63.11;100177.69;4979822;28;19928;-87
2022/10/19 05:17:53;;;;;;;;;;;;;;;6.51;62.82;100179.56;4990307;28;20390;-84
2022/10/19 05:20:18;;;;;;;;;;;;;;;6.48;63.93;100179.53;4977099;28;19941;-84
2022/10/19 05:22:44;;;;;;;;;;;;;;;6.90;66.02;100191.25;4971916;28;20309;-84
2022/10/19 05:25:09;;;;;;;;;;;;;;;7.25;64.83;100190.63;4974966;28;19914;-85
2022/10/19 05:27:34;;;;;;;;;;;;;;;7.59;64.20;100186.44;4974994;28;20009;-84
2022/10/19 05:30:00;;;;;;;;;;;;;;;7.88;63.15;100180.44;4982730;28;19956;-85
2022/10/19 05:32:26;;;;;;;;;;;;;;;8.13;62.20;100183.16;4976099;28;20394;-85
2022/10/19 05:34:51;;;;;;;;;;;;;;;8.30;61.25;100184.06;4975292;28;19925;-85
2022/10/19 05:37:16;;;;;;;;;;;;;;;8.49;60.80;100181.50;4974493;28;19926;-84
2022/10/19 05:39:42;;;;;;;;;;;;;;;8.63;60.22;100179.75;4982776;28;19925;-85
2022/10/19 05:42:07;;;;;;;;;;;;;;;8.68;59.69;100180.66;4985547;28;19918;-84
2022/10/19 05:44:33;;;;;;;;;;;;;;;8.73;58.45;100192.03;4960373;28;20319;-85
2022/10/19 05:46:59;;;;;;;;;;;;;;;8.77;58.12;100187.66;4974297;28;19918;-86
2022/10/19 05:49:24;;;;;;;;;;;;;;;9.08;57.75;100187.63;4983912;28;19997;-85
2022/10/19 05:51:50;;;;;;;;;;;;;;;9.44;56.95;100184.06;4993358;28;20014;-84
2022/10/19 05:54:16;;;;;;;;;;;;;;;9.35;55.34;100186.72;4994072;28;19920;-85
2022/10/19 05:56:41;;;;;;;;;;;;;;;9.30;54.19;100185.88;4993882;28;19918;-85
2022/10/19 05:59:07;;;;;;;;;;;;;;;9.46;53.86;100184.06;4992590;28;19914;-84
2022/10/19 06:01:33;;;;;;;;;;;;;;;9.57;54.02;100176.13;4976806;28;20319;-85
2022/10/19 06:04:00;;;;;;;;;;;;;;;9.65;53.26;100175.25;4994002;28;20376;-85
2022/10/19 06:06:27;;;;;;;;;;;;;;;10.02;53.46;100172.44;4994279;28;19918;-85
2022/10/19 06:08:53;;;;;;;;;;;;;;;10.16;52.28;100174.09;4994389;28;19920;-85
2022/10/19 06:11:26;;;;;;;;;;;;;;;10.21;51.44;100182.88;4993951;28;20392;-85
2022/10/19 06:13:55;;;;;;;;;;;;;;;9.93;52.24;100187.41;4994291;28;19914;-85
2022/10/19 06:16:21;;;;;;;;;;;;;;;10.01;52.41;100188.25;4993864;28;20380;-84
2022/10/19 06:18:47;;;;;;;;;;;;;;;10.22;51.31;100184.63;4993626;28;19924;-84
2022/10/19 06:21:13;;;;;;;;;;;;;;;10.29;51.61;100188.13;4994044;28;20391;-84
2022/10/19 06:23:38;;;;;;;;;;;;;;;10.37;51.66;100181.91;4993796;28;19914;-84
2022/10/19 06:26:06;;;;;;;;;;;;;;;10.75;51.11;100182.53;4993795;28;19929;-85
2022/10/19 06:28:31;;;;;;;;;;;;;;;11.06;50.25;100183.16;4993688;28;19920;-84
2022/10/19 06:30:57;;;;;;;;;;;;;;;11.44;49.08;100176.59;4993340;28;20394;-84
2022/10/19 06:33:22;;;;;;;;;;;;;;;11.34;48.85;100172.31;4993713;28;19913;-85
2022/10/19 06:35:47;;;;;;;;;;;;;;;11.72;48.33;100170.13;4993863;28;19988;-84
2022/10/19 06:38:13;;;;;;;;;;;;;;;11.76;47.68;100170.06;4994270;28;20296;-84
2022/10/19 06:40:38;;;;;;;;;;;;;;;12.04;46.87;100167.09;4993813;28;19913;-85
2022/10/19 06:43:03;;;;;;;;;;;;;;;12.35;46.73;100162.25;4993670;28;19921;-84
2022/10/19 06:45:29;;;;;;;;;;;;;;;12.54;46.65;100157.56;4993294;28;19920;-84
2022/10/19 06:47:54;;;;;;;;;;;;;;;12.42;46.48;100162.16;4993516;28;19921;-84
2022/10/19 06:50:19;;;;;;;;;;;;;;;12.98;45.08;100160.38;4993714;28;19909;-85
2022/10/19 06:52:45;;;;;;;;;;;;;;;13.05;44.32;100163.78;4992770;28;20323;-84
2022/10/19 06:55:11;;;;;;;;;;;;;;;13.39;44.46;100147.28;4994004;28;19913;-83
2022/10/19 06:57:36;;;;;;;;;;;;;;;13.52;44.85;100151.47;4993722;28;19916;-83
2022/10/19 07:00:03;;;;;;;;;;;;;;;13.35;44.87;100143.84;4993141;28;19913;-84
2022/10/19 07:02:28;;;;;;;;;;;;;;;13.42;43.16;100144.59;4993381;28;19972;-84
2022/10/19 07:04:53;;;;;;;;;;;;;;;13.62;43.97;100133.59;4993649;28;19958;-85
2022/10/19 07:07:18;;;;;;;;;;;;;;;13.79;42.27;100142.09;4993068;28;19913;-84
2022/10/19 07:09:44;;;;;;;;;;;;;;;14.12;41.58;100136.94;4993374;28;19914;-84
2022/10/19 07:12:09;;;;;;;;;;;;;;;13.93;40.95;100144.44;4993204;28;19914;-85
2022/10/19 07:14:37;;;;;;;;;;;;;;;14.34;40.44;100133.78;4992861;28;19964;-85
2022/10/19 07:17:03;;;;;;;;;;;;;;;14.60;40.94;100138.50;4992607;28;19914;-84
2022/10/19 07:19:28;;;;;;;;;;;;;;;14.76;40.95;100125.72;4992937;28;19914;-83
2022/10/19 07:21:53;;;;;;;;;;;;;;;15.06;39.16;100128.50;4992993;28;19913;-83
2022/10/19 07:24:19;;;;;;;;;;;;;;;15.19;40.13;100119.28;4993032;28;19964;-83
2022/10/19 07:26:44;;;;;;;;;;;;;;;15.02;38.78;100118.88;4992847;28;20311;-83
2022/10/19 07:29:10;;;;;;;;;;;;;;;15.19;37.83;100124.59;4992590;28;20411;-83
2022/10/19 07:31:36;;;;;;;;;;;;;;;15.34;40.20;100117.13;4992696;28;19918;-84
2022/10/19 07:34:02;;;;;;;;;;;;;;;15.64;39.74;100122.47;4992733;28;19992;-84
2022/10/19 07:36:29;;;;;;;;;;;;;;;15.99;39.48;100115.25;4992919;28;20372;-84
2022/10/19 07:38:54;;;;;;;;;;;;;;;16.41;37.02;100117.50;4992749;28;19980;-84
2022/10/19 07:41:21;;;;;;;;;;;;;;;16.54;37.07;100115.28;4992655;28;20427;-84
2022/10/19 07:43:47;;;;;;;;;;;;;;;16.48;36.11;100111.03;4992445;28;19957;-84
2022/10/19 07:46:13;;;;;;;;;;;;;;;16.71;35.33;100106.75;4990605;28;19953;-83
2022/10/19 07:48:39;;;;;;;;;;;;;;;16.82;35.44;100099.25;4992533;28;19924;-84
2022/10/19 07:51:05;;;;;;;;;;;;;;;16.92;34.80;100090.06;4992389;28;19914;-84
2022/10/19 07:53:31;;;;;;;;;;;;;;;16.89;37.37;100086.63;4992422;28;19913;-84
2022/10/19 07:56:02;;;;;;;;;;;;;;;17.18;34.55;100085.59;4976204;28;19921;-84
2022/10/19 07:58:27;;;;;;;;;;;;;;;17.07;33.43;100078.00;4972721;28;19928;-84
2022/10/19 08:00:58;;;;;;;;;;;;;;;17.05;33.39;100073.63;4972223;28;20004;-85
2022/10/19 08:03:23;;;;;;;;;;;;;;;17.44;33.69;100065.09;4972701;28;19921;-85
2022/10/19 08:05:48;;;;;;;;;;;;;;;17.43;33.16;100074.03;4972903;28;19914;-85
2022/10/19 08:08:13;;;;;;;;;;;;;;;17.19;33.59;100068.66;4972759;28;19918;-85
2022/10/19 08:10:39;;;;;;;;;;;;;;;17.08;32.88;100070.84;4972739;28;19918;-84
2022/10/19 08:13:04;;;;;;;;;;;;;;;17.06;33.36;100075.38;4972675;28;20365;-85
2022/10/19 08:15:29;;;;;;;;;;;;;;;17.21;33.83;100074.81;4972320;28;19914;-82
2022/10/19 08:17:54;;;;;;;;;;;;;;;17.56;33.38;100067.28;4972927;28;19918;-82
2022/10/19 08:20:20;;;;;;;;;;;;;;;17.89;32.09;100065.16;4972825;28;19914;-81
2022/10/19 08:22:45;;;;;;;;;;;;;;;18.21;32.78;100055.00;4955427;28;20373;-81
2022/10/19 08:25:11;;;;;;;;;;;;;;;18.31;32.68;100047.47;4972663;28;19937;-82
2022/10/19 08:27:36;;;;;;;;;;;;;;;18.27;32.38;100043.19;4972388;28;19914;-82
2022/10/19 08:30:01;;;;;;;;;;;;;;;18.22;31.55;100042.50;4972112;28;20056;-82
2022/10/19 08:32:26;;;;;;;;;;;;;;;18.19;32.20;100045.31;4972657;28;20312;-82
2022/10/19 08:34:52;;;;;;;;;;;;;;;18.28;31.73;100047.59;4972406;28;19917;-82
2022/10/19 08:37:17;;;;;;;;;;;;;;;17.47;32.83;100047.19;4972724;28;20312;-82
2022/10/19 08:39:42;;;;;;;;;;;;;;;17.46;33.08;100037.44;4972746;28;20377;-81
2022/10/19 08:42:15;;;;;;;;;;;;;;;17.89;33.36;100037.63;4972363;28;19918;-82
2022/10/19 08:44:52;;;;;;;;;;;;;;;17.86;32.11;100032.38;4972270;28;19960;-82
2022/10/19 08:47:26;;;;;;;;;;;;;;;18.04;32.48;100034.34;4972235;28;19918;-82
2022/10/19 08:49:52;;;;;;;;;;;;;;;17.82;32.22;100028.06;4972660;28;19965;-81
2022/10/19 08:52:23;;;;;;;;;;;;;;;17.89;33.18;100029.63;4971053;28;19922;-81
2022/10/19 08:54:59;;;;;;;;;;;;;;;18.08;32.16;100019.91;4972212;28;19922;-82
2022/10/19 08:57:25;;;;;;;;;;;;;;;17.96;33.05;100025.75;4971184;28;19914;-84
2022/10/19 09:00:09;;;;;;;;;;;;;;;17.83;31.26;100017.34;4969363;28;20376;-89
2022/10/19 09:02:53;;;;;;;;;;;;;;;18.02;31.73;100016.63;4966529;28;20000;-88
2022/10/19 09:05:29;;;;;;;;;;;;;;;17.65;31.45;100008.25;4970692;28;19914;-87
2022/10/19 09:07:54;;;;;;;;;;;;;;;17.84;31.69;100005.75;4968642;28;19918;-87
2022/10/19 09:10:24;;;;;;;;;;;;;;;17.64;31.63;100003.88;4963533;28;20308;-87
2022/10/19 09:12:49;;;;;;;;;;;;;;;17.39;32.91;100003.06;4967417;28;19922;-89
2022/10/19 09:15:19;;;;;;;;;;;;;;;17.61;32.57;99998.66;4950870;28;19918;-87
2022/10/19 09:17:45;;;;;;;;;;;;;;;18.05;31.42;99998.69;4969836;28;20251;-87
2022/10/19 09:20:14;;;;;;;;;;;;;;;18.01;32.18;99990.88;4972327;28;20407;-85
2022/10/19 09:22:42;;;;;;;;;;;;;;;18.34;31.32;99995.75;4973338;28;19925;-85
2022/10/19 09:25:20;;;;;;;;;;;;;;;18.10;30.73;99994.97;4972407;28;19996;-89
2022/10/19 09:27:52;;;;;;;;;;;;;;;17.89;32.59;100002.94;4970827;28;19926;-88
2022/10/19 09:30:19;;;;;;;;;;;;;;;18.06;31.39;99987.09;4971008;28;19929;-87
2022/10/19 09:32:46;;;;;;;;;;;;;;;18.13;31.07;99986.84;4973396;28;20399;-88
2022/10/19 09:35:20;;;;;;;;;;;;;;;18.50;30.56;99982.59;4972800;28;20004;-85
2022/10/19 09:37:47;;;;;;;;;;;;;;;18.47;29.74;99978.25;4970535;28;19973;-85
2022/10/19 09:40:17;;;;;;;;;;;;;;;18.26;29.88;99974.72;4974883;28;19941;-85
2022/10/19 09:42:42;;;;;;;;;;;;;;;18.36;30.39;99978.72;4974608;28;19914;-85
2022/10/19 09:45:15;;;;;;;;;;;;;;;18.46;30.25;99971.19;4973691;28;20297;-85
2022/10/19 09:47:41;;;;;;;;;;;;;;;18.56;29.73;99968.97;4972498;28;19930;-86
2022/10/19 09:50:16;;;;;;;;;;;;;;;18.83;29.76;99960.66;4973423;28;19914;-87
2022/10/19 09:52:42;;;;;;;;;;;;;;;19.00;29.27;99965.28;4956200;28;20296;-86
2022/10/19 09:55:14;;;;;;;;;;;;;;;18.85;29.45;99962.38;4975056;28;19972;-84
2022/10/19 09:57:47;;;;;;;;;;;;;;;18.66;29.49;99951.63;4974383;28;19918;-84
2022/10/19 10:00:23;;;;;;;;;;;;;;;18.76;29.37;99941.38;4974631;28;19910;-84
2022/10/19 10:02:52;;;;;;;;;;;;;;;18.91;28.52;99942.53;4975128;28;20400;-84
2022/10/19 10:05:18;;;;;;;;;;;;;;;19.07;28.80;99943.53;4974942;28;20355;-86
2022/10/19 10:07:44;;;;;;;;;;;;;;;19.23;28.54;99934.81;4974902;28;19914;-84
2022/10/19 10:10:19;;;;;;;;;;;;;;;19.12;28.13;99927.28;4974301;28;19964;-83
2022/10/19 10:12:45;;;;;;;;;;;;;;;19.06;28.34;99924.91;4974016;28;19914;-83
2022/10/19 10:15:15;;;;;;;;;;;;;;;19.21;28.07;99923.34;4973931;28;19914;-83
2022/10/19 10:17:43;;;;;;;;;;;;;;;19.33;28.12;99928.09;4973861;28;19921;-84
2022/10/19 10:20:26;;;;;;;;;;;;;;;19.30;27.58;99914.88;4974013;28;19921;-84
2022/10/19 10:23:15;;;;;;;;;;;;;;;19.42;28.03;99914.28;4973995;28;19914;-85
2022/10/19 10:25:47;;;;;;;;;;;;;;;19.36;28.30;99913.72;4973403;28;19997;-85
2022/10/19 10:28:20;;;;;;;;;;;;;;;19.55;28.00;99911.03;4972687;28;20308;-84
2022/10/19 10:30:47;;;;;;;;;;;;;;;19.55;28.38;99906.53;4974179;28;19925;-84
2022/10/19 10:33:15;;;;;;;;;;;;;;;19.65;29.00;99899.78;4974123;28;19960;-84
2022/10/19 10:35:46;;;;;;;;;;;;;;;19.68;29.07;99893.44;4974631;28;19957;-85
2022/10/19 10:38:31;;;;;;;;;;;;;;;19.67;29.42;99895.22;4974445;28;20037;-84
2022/10/19 10:41:04;;;;;;;;;;;;;;;19.87;29.37;99892.53;4973742;28;20381;-84
2022/10/19 10:43:32;;;;;;;;;;;;;;;20.00;27.58;99877.56;4973906;28;20467;-84
2022/10/19 10:46:19;;;;;;;;;;;;;;;20.05;27.40;99864.84;4974128;28;20431;-84
2022/10/19 10:48:51;;;;;;;;;;;;;;;19.96;28.67;99874.19;4974148;28;19914;-85
2022/10/19 10:51:21;;;;;;;;;;;;;;;20.10;28.40;99859.25;4974124;28;19921;-85
2022/10/19 10:53:46;;;;;;;;;;;;;;;20.25;27.71;99862.91;4974236;28;19917;-85
2022/10/19 10:56:26;;;;;;;;;;;;;;;20.19;27.60;99856.09;4973985;28;20309;-84
2022/10/19 10:58:56;;;;;;;;;;;;;;;20.31;27.83;99852.75;4956976;28;20430;-84
2022/10/19 11:01:22;;;;;;;;;;;;;;;20.35;27.25;99840.06;4974018;28;19909;-84
2022/10/19 11:04:08;;;;;;;;;;;;;;;20.35;26.86;99842.75;4973877;28;20015;-85
2022/10/19 11:06:36;;;;;;;;;;;;;;;20.18;28.43;99843.63;4962747;28;19966;-85
2022/10/19 11:09:07;;;;;;;;;;;;;;;20.17;27.64;99840.09;4973928;28;19914;-85
2022/10/19 11:11:41;;;;;;;;;;;;;;;20.30;27.40;99836.78;4973787;28;19997;-86
2022/10/19 11:14:45;;;;;;;;;;;;;;;20.33;28.27;99837.47;4973665;28;19914;-85
2022/10/19 11:17:30;;;;;;;;;;;;;;;20.41;27.05;99834.38;4913998;29;19918;-85
2022/10/19 11:19:56;;;;;;;;;;;;;;;20.62;26.96;99826.13;4913464;29;19954;-86
2022/10/19 11:22:24;;;;;;;;;;;;;;;20.48;26.92;99827.75;4949424;28;19960;-85
2022/10/19 11:24:55;;;;;;;;;;;;;;;20.39;27.34;99815.69;4973469;28;20380;-87
2022/10/19 11:27:36;;;;;;;;;;;;;;;20.42;28.12;99812.00;4973329;28;19914;-86
2022/10/19 11:30:10;;;;;;;;;;;;;;;20.44;26.73;99810.09;4973108;28;19941;-86
2022/10/19 11:32:49;;;;;;;;;;;;;;;20.64;26.45;99805.47;4973361;28;20373;-87
2022/10/19 11:35:24;;;;;;;;;;;;;;;20.80;26.73;99794.78;4973285;28;20001;-88
2022/10/19 11:38:07;;;;;;;;;;;;;;;20.82;26.30;99801.81;4972923;28;19994;-87
2022/10/19 11:40:35;;;;;;;;;;;;;;;21.18;26.20;99795.31;4973290;28;19910;-89
2022/10/19 11:43:05;;;;;;;;;;;;;;;21.26;25.97;99797.56;4956150;28;19914;-87
2022/10/19 11:45:31;;;;;;;;;;;;;;;21.27;26.03;99796.56;4973089;28;20384;-88
2022/10/19 11:48:04;;;;;;;;;;;;;;;21.26;25.78;99789.50;4973037;28;19921;-86
2022/10/19 11:50:53;;;;;;;;;;;;;;;21.23;26.05;99781.63;4973090;28;20393;-87
2022/10/19 11:53:37;;;;;;;;;;;;;;;21.12;25.68;99779.56;4965206;28;19914;-88
2022/10/19 11:56:19;;;;;;;;;;;;;;;21.24;26.55;99784.22;4973373;28;19938;-89
2022/10/19 11:58:59;;;;;;;;;;;;;;;21.44;26.18;99774.13;4973451;28;19913;-86
2022/10/19 12:01:44;;;;;;;;;;;;;;;21.40;26.10;99769.91;4974032;28;19914;-87
2022/10/19 12:04:28;;;;;;;;;;;;;;;21.42;25.86;99763.47;4975283;28;19929;-88
2022/10/19 12:06:56;;;;;;;;;;;;;;;21.41;26.33;99761.78;4957173;28;20290;-89
2022/10/19 12:09:33;;;;;;;;;;;;;;;21.63;25.65;99772.13;4974015;28;19964;-88
2022/10/19 12:12:05;;;;;;;;;;;;;;;21.75;26.09;99756.22;4973645;28;19914;-88
2022/10/19 12:14:32;;;;;;;;;;;;;;;21.84;25.85;99752.13;4974097;28;20411;-89
2022/10/19 12:17:00;;;;;;;;;;;;;;;21.90;26.28;99752.59;4974955;28;19964;-88
2022/10/19 12:19:31;;;;;;;;;;;;;;;21.84;26.05;99746.75;4973903;28;19914;-88
2022/10/19 12:22:01;;;;;;;;;;;;;;;21.76;25.64;99750.75;4973446;28;20008;-87
2022/10/19 12:24:28;;;;;;;;;;;;;;;21.93;26.16;99733.63;4973450;28;19914;-87
2022/10/19 12:26:53;;;;;;;;;;;;;;;22.09;25.05;99738.94;4972795;28;19920;-87
2022/10/19 12:29:26;;;;;;;;;;;;;;;22.07;25.36;99734.59;4972602;28;19914;-85
2022/10/19 12:31:52;;;;;;;;;;;;;;;22.14;25.74;99736.81;4976013;28;19914;-83
2022/10/19 12:34:18;;;;;;;;;;;;;;;22.31;25.68;99729.56;4978115;28;19949;-84
2022/10/19 12:37:09;;;;;;;;;;;;;;;22.23;24.75;99718.38;4979453;28;20407;-87
2022/10/19 12:39:38;;;;;;;;;;;;;;;22.21;24.63;99721.16;4971966;28;19965;-91
2022/10/19 12:42:14;;;;;;;;;;;;;;;22.30;24.44;99717.94;4972810;28;20432;-88
2022/10/19 12:44:53;;;;;;;;;;;;;;;22.27;25.58;99703.81;4972818;28;19974;-88
2022/10/19 12:47:19;;;;;;;;;;;;;;;22.30;24.96;99707.19;4971261;28;20364;-86
2022/10/19 12:49:46;;;;;;;;;;;;;;;22.54;24.01;99706.59;4972749;28;19914;-84
2022/10/19 12:52:12;;;;;;;;;;;;;;;22.55;24.96;99704.75;4976276;28;19914;-86